sensor_id;sensor_type;location;lat;lon;timestamp;temperature;humidity
9371;DHT22;4725;48.384;8.984;2023-03-14T00:02:25;8.10;99.90
9371;DHT22;4725;48.384;8.984;2023-03-14T00:04:54;8.20;99.90
9371;DHT22;4725;48.384;8.984;2023-03-14T00:07:23;8.10;99.90
9371;DHT22;4725;48.384;8.984;2023-03-14T00:09:51;8.00;99.90
9371;DHT22;4725;48.384;8.984;2023-03-14T00:12:17;7.90;99.90
9371;DHT22;4725;48.384;8.984;2023-03-14T00:14:46;8.00;99.90
9371;DHT22;4725;48.384;8.984;2023-03-14T00:17:13;7.90;99.90
9371;DHT22;4725;48.384;8.984;2023-03-14T00:19:40;7.80;99.90
9371;DHT22;4725;48.384;8.984;2023-03-14T00:22:06;7.80;99.90
9371;DHT22;4725;48.384;8.984;2023-03-14T00:24:33;7.80;99.90
9371;DHT22;4725;48.384;8.984;2023-03-14T00:27:00;7.90;99.90
9371;DHT22;4725;48.384;8.984;2023-03-14T00:29:27;7.70;99.90
9371;DHT22;4725;48.384;8.984;2023-03-14T00:31:55;7.70;99.90
9371;DHT22;4725;48.384;8.984;2023-03-14T00:34:22;7.70;99.90
9371;DHT22;4725;48.384;8.984;2023-03-14T00:36:49;7.60;99.90
9371;DHT22;4725;48.384;8.984;2023-03-14T00:39:16;7.60;99.90
9371;DHT22;4725;48.384;8.984;2023-03-14T00:41:43;7.60;99.90
9371;DHT22;4725;48.384;8.984;2023-03-14T00:44:10;7.70;99.90
9371;DHT22;4725;48.384;8.984;2023-03-14T00:46:37;7.60;99.90
9371;DHT22;4725;48.384;8.984;2023-03-14T00:49:05;7.70;99.90
9371;DHT22;4725;48.384;8.984;2023-03-14T00:51:32;7.70;99.90
9371;DHT22;4725;48.384;8.984;2023-03-14T00:53:59;7.70;99.90
9371;DHT22;4725;48.384;8.984;2023-03-14T00:56:26;7.70;99.90
9371;DHT22;4725;48.384;8.984;2023-03-14T00:58:54;7.90;99.90
9371;DHT22;4725;48.384;8.984;2023-03-14T01:01:21;7.90;99.90
9371;DHT22;4725;48.384;8.984;2023-03-14T01:03:50;7.80;99.90
9371;DHT22;4725;48.384;8.984;2023-03-14T01:06:21;7.80;99.90
9371;DHT22;4725;48.384;8.984;2023-03-14T01:08:48;7.80;99.90
9371;DHT22;4725;48.384;8.984;2023-03-14T01:11:17;7.80;99.90
9371;DHT22;4725;48.384;8.984;2023-03-14T01:13:45;7.90;99.90
9371;DHT22;4725;48.384;8.984;2023-03-14T01:16:15;7.90;99.90
9371;DHT22;4725;48.384;8.984;2023-03-14T01:18:44;7.90;99.90
9371;DHT22;4725;48.384;8.984;2023-03-14T01:21:13;7.90;99.90
9371;DHT22;4725;48.384;8.984;2023-03-14T01:23:42;7.90;99.90
9371;DHT22;4725;48.384;8.984;2023-03-14T01:26:11;7.90;99.90
9371;DHT22;4725;48.384;8.984;2023-03-14T01:28:38;7.80;99.90
9371;DHT22;4725;48.384;8.984;2023-03-14T01:31:06;7.80;99.90
9371;DHT22;4725;48.384;8.984;2023-03-14T01:33:34;7.70;99.90
9371;DHT22;4725;48.384;8.984;2023-03-14T01:36:01;7.60;99.90
9371;DHT22;4725;48.384;8.984;2023-03-14T01:38:28;7.60;99.90
9371;DHT22;4725;48.384;8.984;2023-03-14T01:40:57;7.60;99.90
9371;DHT22;4725;48.384;8.984;2023-03-14T01:43:24;7.60;99.90
9371;DHT22;4725;48.384;8.984;2023-03-14T01:46:20;7.60;99.90
9371;DHT22;4725;48.384;8.984;2023-03-14T01:48:54;7.70;99.90
9371;DHT22;4725;48.384;8.984;2023-03-14T01:51:26;7.70;99.90
9371;DHT22;4725;48.384;8.984;2023-03-14T01:54:01;7.70;99.90
9371;DHT22;4725;48.384;8.984;2023-03-14T01:56:30;7.70;99.90
9371;DHT22;4725;48.384;8.984;2023-03-14T01:58:59;7.70;99.90
9371;DHT22;4725;48.384;8.984;2023-03-14T02:01:28;7.70;99.90
9371;DHT22;4725;48.384;8.984;2023-03-14T02:03:59;7.70;99.90
9371;DHT22;4725;48.384;8.984;2023-03-14T02:06:32;7.70;99.90
9371;DHT22;4725;48.384;8.984;2023-03-14T02:09:01;7.70;99.90
9371;DHT22;4725;48.384;8.984;2023-03-14T02:11:31;7.60;99.90
9371;DHT22;4725;48.384;8.984;2023-03-14T02:13:58;7.70;99.90
9371;DHT22;4725;48.384;8.984;2023-03-14T02:16:25;7.70;99.90
9371;DHT22;4725;48.384;8.984;2023-03-14T02:18:52;7.60;99.90
9371;DHT22;4725;48.384;8.984;2023-03-14T02:21:24;7.60;99.90
9371;DHT22;4725;48.384;8.984;2023-03-14T02:24:02;7.60;99.90
9371;DHT22;4725;48.384;8.984;2023-03-14T02:26:38;7.60;99.90
9371;DHT22;4725;48.384;8.984;2023-03-14T02:29:07;7.50;99.90
9371;DHT22;4725;48.384;8.984;2023-03-14T02:31:34;7.50;99.90
9371;DHT22;4725;48.384;8.984;2023-03-14T02:34:01;7.50;99.90
9371;DHT22;4725;48.384;8.984;2023-03-14T02:36:29;7.50;99.90
9371;DHT22;4725;48.384;8.984;2023-03-14T02:39:04;7.50;99.90
9371;DHT22;4725;48.384;8.984;2023-03-14T02:41:32;7.50;99.90
9371;DHT22;4725;48.384;8.984;2023-03-14T02:43:59;7.50;99.90
9371;DHT22;4725;48.384;8.984;2023-03-14T02:46:28;7.50;99.90
9371;DHT22;4725;48.384;8.984;2023-03-14T02:48:58;7.50;99.90
9371;DHT22;4725;48.384;8.984;2023-03-14T02:51:26;7.60;99.90
9371;DHT22;4725;48.384;8.984;2023-03-14T02:53:54;7.70;99.90
9371;DHT22;4725;48.384;8.984;2023-03-14T02:56:21;7.80;99.90
9371;DHT22;4725;48.384;8.984;2023-03-14T02:58:48;7.90;99.90
9371;DHT22;4725;48.384;8.984;2023-03-14T03:01:15;7.90;99.90
9371;DHT22;4725;48.384;8.984;2023-03-14T03:03:43;7.90;99.90
9371;DHT22;4725;48.384;8.984;2023-03-14T03:06:10;7.90;99.90
9371;DHT22;4725;48.384;8.984;2023-03-14T03:08:37;7.80;99.90
9371;DHT22;4725;48.384;8.984;2023-03-14T03:11:04;7.80;99.90
9371;DHT22;4725;48.384;8.984;2023-03-14T03:13:31;7.80;99.90
9371;DHT22;4725;48.384;8.984;2023-03-14T03:15:58;7.80;99.90
9371;DHT22;4725;48.384;8.984;2023-03-14T03:18:25;7.80;99.90
9371;DHT22;4725;48.384;8.984;2023-03-14T03:20:53;7.80;99.90
9371;DHT22;4725;48.384;8.984;2023-03-14T03:23:20;7.80;99.90
9371;DHT22;4725;48.384;8.984;2023-03-14T03:25:51;7.70;99.90
9371;DHT22;4725;48.384;8.984;2023-03-14T03:28:18;7.60;99.90
9371;DHT22;4725;48.384;8.984;2023-03-14T03:30:45;7.70;99.90
9371;DHT22;4725;48.384;8.984;2023-03-14T03:33:12;7.60;99.90
9371;DHT22;4725;48.384;8.984;2023-03-14T03:35:43;7.60;99.90
9371;DHT22;4725;48.384;8.984;2023-03-14T03:38:13;7.70;99.90
9371;DHT22;4725;48.384;8.984;2023-03-14T03:40:40;7.60;99.90
9371;DHT22;4725;48.384;8.984;2023-03-14T03:43:07;7.50;99.90
9371;DHT22;4725;48.384;8.984;2023-03-14T03:45:34;7.50;99.90
9371;DHT22;4725;48.384;8.984;2023-03-14T03:48:01;7.50;99.90
9371;DHT22;4725;48.384;8.984;2023-03-14T03:50:28;7.50;99.90
9371;DHT22;4725;48.384;8.984;2023-03-14T03:52:55;7.40;99.90
9371;DHT22;4725;48.384;8.984;2023-03-14T03:55:24;7.40;99.90
9371;DHT22;4725;48.384;8.984;2023-03-14T03:57:51;7.40;99.90
9371;DHT22;4725;48.384;8.984;2023-03-14T04:00:18;7.40;99.90
9371;DHT22;4725;48.384;8.984;2023-03-14T04:02:45;7.40;99.90
9371;DHT22;4725;48.384;8.984;2023-03-14T04:05:12;7.40;99.90
9371;DHT22;4725;48.384;8.984;2023-03-14T04:07:39;7.40;99.90
9371;DHT22;4725;48.384;8.984;2023-03-14T04:10:07;7.50;99.90
9371;DHT22;4725;48.384;8.984;2023-03-14T04:12:36;7.50;99.90
9371;DHT22;4725;48.384;8.984;2023-03-14T04:15:03;7.50;99.90
9371;DHT22;4725;48.384;8.984;2023-03-14T04:17:30;7.60;99.90
9371;DHT22;4725;48.384;8.984;2023-03-14T04:19:57;7.50;99.90
9371;DHT22;4725;48.384;8.984;2023-03-14T04:22:24;7.50;99.90
9371;DHT22;4725;48.384;8.984;2023-03-14T04:24:51;7.60;99.90
9371;DHT22;4725;48.384;8.984;2023-03-14T04:27:18;7.60;99.90
9371;DHT22;4725;48.384;8.984;2023-03-14T04:29:46;7.60;99.90
9371;DHT22;4725;48.384;8.984;2023-03-14T04:32:13;7.60;99.90
9371;DHT22;4725;48.384;8.984;2023-03-14T04:34:41;7.70;99.90
9371;DHT22;4725;48.384;8.984;2023-03-14T04:37:08;7.70;99.90
9371;DHT22;4725;48.384;8.984;2023-03-14T04:39:34;9.50;99.90
9371;DHT22;4725;48.384;8.984;2023-03-14T04:42:01;7.70;99.90
9371;DHT22;4725;48.384;8.984;2023-03-14T04:44:28;7.80;99.90
9371;DHT22;4725;48.384;8.984;2023-03-14T04:46:57;7.80;99.90
9371;DHT22;4725;48.384;8.984;2023-03-14T04:49:24;7.80;99.90
9371;DHT22;4725;48.384;8.984;2023-03-14T04:51:51;7.80;99.90
9371;DHT22;4725;48.384;8.984;2023-03-14T04:54:18;7.70;99.90
9371;DHT22;4725;48.384;8.984;2023-03-14T04:56:45;7.70;99.90
9371;DHT22;4725;48.384;8.984;2023-03-14T04:59:12;7.80;99.90
9371;DHT22;4725;48.384;8.984;2023-03-14T05:01:39;7.80;99.90
9371;DHT22;4725;48.384;8.984;2023-03-14T05:04:08;7.70;99.90
9371;DHT22;4725;48.384;8.984;2023-03-14T05:06:34;7.80;99.90
9371;DHT22;4725;48.384;8.984;2023-03-14T05:09:01;7.80;99.90
9371;DHT22;4725;48.384;8.984;2023-03-14T05:11:30;7.80;99.90
9371;DHT22;4725;48.384;8.984;2023-03-14T05:13:58;7.80;99.90
9371;DHT22;4725;48.384;8.984;2023-03-14T05:16:25;7.90;99.90
9371;DHT22;4725;48.384;8.984;2023-03-14T05:18:52;8.00;99.90
9371;DHT22;4725;48.384;8.984;2023-03-14T05:21:20;8.00;99.90
9371;DHT22;4725;48.384;8.984;2023-03-14T05:23:47;8.10;99.90
9371;DHT22;4725;48.384;8.984;2023-03-14T05:26:14;8.10;99.90
9371;DHT22;4725;48.384;8.984;2023-03-14T05:28:42;8.00;99.90
9371;DHT22;4725;48.384;8.984;2023-03-14T05:31:09;7.90;99.90
9371;DHT22;4725;48.384;8.984;2023-03-14T05:33:36;7.90;99.90
9371;DHT22;4725;48.384;8.984;2023-03-14T05:36:04;8.00;99.90
9371;DHT22;4725;48.384;8.984;2023-03-14T05:38:32;7.90;99.90
9371;DHT22;4725;48.384;8.984;2023-03-14T05:40:59;7.90;99.90
9371;DHT22;4725;48.384;8.984;2023-03-14T05:43:26;7.80;99.90
9371;DHT22;4725;48.384;8.984;2023-03-14T05:45:53;7.80;99.90
9371;DHT22;4725;48.384;8.984;2023-03-14T05:48:20;7.70;99.90
9371;DHT22;4725;48.384;8.984;2023-03-14T05:50:48;7.70;99.90
9371;DHT22;4725;48.384;8.984;2023-03-14T05:53:15;7.70;99.90
9371;DHT22;4725;48.384;8.984;2023-03-14T05:55:43;7.70;99.90
9371;DHT22;4725;48.384;8.984;2023-03-14T05:58:10;7.60;99.90
9371;DHT22;4725;48.384;8.984;2023-03-14T06:00:37;7.70;99.90
9371;DHT22;4725;48.384;8.984;2023-03-14T06:03:03;7.70;99.90
9371;DHT22;4725;48.384;8.984;2023-03-14T06:05:30;7.60;99.90
9371;DHT22;4725;48.384;8.984;2023-03-14T06:07:57;7.60;99.90
9371;DHT22;4725;48.384;8.984;2023-03-14T06:10:24;7.70;99.90
9371;DHT22;4725;48.384;8.984;2023-03-14T06:12:52;7.70;99.90
9371;DHT22;4725;48.384;8.984;2023-03-14T06:15:20;7.70;99.90
9371;DHT22;4725;48.384;8.984;2023-03-14T06:17:47;7.70;99.90
9371;DHT22;4725;48.384;8.984;2023-03-14T06:20:13;7.80;99.90
9371;DHT22;4725;48.384;8.984;2023-03-14T06:22:40;7.90;99.90
9371;DHT22;4725;48.384;8.984;2023-03-14T06:25:08;8.00;99.90
9371;DHT22;4725;48.384;8.984;2023-03-14T06:27:35;8.00;99.90
9371;DHT22;4725;48.384;8.984;2023-03-14T06:30:04;7.90;99.90
9371;DHT22;4725;48.384;8.984;2023-03-14T06:32:32;8.00;99.90
9371;DHT22;4725;48.384;8.984;2023-03-14T06:34:59;8.00;99.90
9371;DHT22;4725;48.384;8.984;2023-03-14T06:37:26;8.00;99.90
9371;DHT22;4725;48.384;8.984;2023-03-14T06:39:54;8.00;99.90
9371;DHT22;4725;48.384;8.984;2023-03-14T06:42:21;8.00;99.90
9371;DHT22;4725;48.384;8.984;2023-03-14T06:44:48;8.10;99.90
9371;DHT22;4725;48.384;8.984;2023-03-14T06:47:16;8.10;99.90
9371;DHT22;4725;48.384;8.984;2023-03-14T06:49:43;8.20;99.90
9371;DHT22;4725;48.384;8.984;2023-03-14T06:52:10;8.20;99.90
9371;DHT22;4725;48.384;8.984;2023-03-14T06:54:37;8.20;99.90
9371;DHT22;4725;48.384;8.984;2023-03-14T06:57:04;8.30;99.90
9371;DHT22;4725;48.384;8.984;2023-03-14T06:59:31;8.30;99.90
9371;DHT22;4725;48.384;8.984;2023-03-14T07:01:58;8.30;99.90
9371;DHT22;4725;48.384;8.984;2023-03-14T07:04:26;8.30;99.90
9371;DHT22;4725;48.384;8.984;2023-03-14T07:06:53;8.30;99.90
9371;DHT22;4725;48.384;8.984;2023-03-14T07:09:20;8.50;99.90
9371;DHT22;4725;48.384;8.984;2023-03-14T07:11:47;8.50;99.90
9371;DHT22;4725;48.384;8.984;2023-03-14T07:14:14;8.50;99.90
9371;DHT22;4725;48.384;8.984;2023-03-14T07:16:41;8.50;99.90
9371;DHT22;4725;48.384;8.984;2023-03-14T07:19:08;8.70;99.90
9371;DHT22;4725;48.384;8.984;2023-03-14T07:21:36;8.80;99.90
9371;DHT22;4725;48.384;8.984;2023-03-14T07:24:03;8.80;99.90
9371;DHT22;4725;48.384;8.984;2023-03-14T07:26:30;8.80;99.90
9371;DHT22;4725;48.384;8.984;2023-03-14T07:28:57;9.00;99.90
9371;DHT22;4725;48.384;8.984;2023-03-14T07:31:24;9.10;99.90
9371;DHT22;4725;48.384;8.984;2023-03-14T07:33:51;9.40;99.90
9371;DHT22;4725;48.384;8.984;2023-03-14T07:38:47;9.50;99.90
9371;DHT22;4725;48.384;8.984;2023-03-14T07:41:14;9.50;99.90
9371;DHT22;4725;48.384;8.984;2023-03-14T07:43:41;9.40;99.90
9371;DHT22;4725;48.384;8.984;2023-03-14T07:46:08;9.40;99.90
9371;DHT22;4725;48.384;8.984;2023-03-14T07:48:34;9.30;99.90
9371;DHT22;4725;48.384;8.984;2023-03-14T07:51:01;9.30;99.90
9371;DHT22;4725;48.384;8.984;2023-03-14T07:53:28;9.30;99.90
9371;DHT22;4725;48.384;8.984;2023-03-14T07:55:57;9.30;99.90
9371;DHT22;4725;48.384;8.984;2023-03-14T07:58:24;9.50;99.90
9371;DHT22;4725;48.384;8.984;2023-03-14T08:00:51;8.80;99.90
9371;DHT22;4725;48.384;8.984;2023-03-14T08:03:18;9.50;99.90
9371;DHT22;4725;48.384;8.984;2023-03-14T08:05:47;9.60;99.90
9371;DHT22;4725;48.384;8.984;2023-03-14T08:08:14;9.70;99.90
9371;DHT22;4725;48.384;8.984;2023-03-14T08:10:41;9.70;99.90
9371;DHT22;4725;48.384;8.984;2023-03-14T08:13:10;9.80;99.90
9371;DHT22;4725;48.384;8.984;2023-03-14T08:18:05;9.80;99.90
9371;DHT22;4725;48.384;8.984;2023-03-14T08:20:32;9.90;99.90
9371;DHT22;4725;48.384;8.984;2023-03-14T08:23:00;9.90;99.90
9371;DHT22;4725;48.384;8.984;2023-03-14T08:25:27;9.90;99.90
9371;DHT22;4725;48.384;8.984;2023-03-14T08:27:55;9.90;99.90
9371;DHT22;4725;48.384;8.984;2023-03-14T08:30:24;9.90;99.90
9371;DHT22;4725;48.384;8.984;2023-03-14T08:32:51;10.00;99.90
9371;DHT22;4725;48.384;8.984;2023-03-14T08:35:18;10.20;99.90
9371;DHT22;4725;48.384;8.984;2023-03-14T08:37:45;10.20;99.90
9371;DHT22;4725;48.384;8.984;2023-03-14T08:40:13;10.10;99.90
9371;DHT22;4725;48.384;8.984;2023-03-14T08:42:41;10.10;99.90
9371;DHT22;4725;48.384;8.984;2023-03-14T08:45:10;10.10;99.90
9371;DHT22;4725;48.384;8.984;2023-03-14T08:47:39;10.10;99.90
9371;DHT22;4725;48.384;8.984;2023-03-14T08:50:07;10.10;99.90
9371;DHT22;4725;48.384;8.984;2023-03-14T08:52:35;10.20;99.90
9371;DHT22;4725;48.384;8.984;2023-03-14T08:55:03;10.20;99.90
9371;DHT22;4725;48.384;8.984;2023-03-14T08:57:30;10.20;99.90
9371;DHT22;4725;48.384;8.984;2023-03-14T08:59:58;10.30;99.90
9371;DHT22;4725;48.384;8.984;2023-03-14T09:02:25;10.30;99.90
9371;DHT22;4725;48.384;8.984;2023-03-14T09:04:54;10.40;99.90
9371;DHT22;4725;48.384;8.984;2023-03-14T09:07:21;10.20;99.90
9371;DHT22;4725;48.384;8.984;2023-03-14T09:09:48;10.20;99.90
9371;DHT22;4725;48.384;8.984;2023-03-14T09:12:14;10.00;99.90
9371;DHT22;4725;48.384;8.984;2023-03-14T09:14:41;10.00;99.90
9371;DHT22;4725;48.384;8.984;2023-03-14T09:17:08;9.80;99.90
9371;DHT22;4725;48.384;8.984;2023-03-14T09:19:35;9.70;99.90
9371;DHT22;4725;48.384;8.984;2023-03-14T09:22:04;9.70;99.90
9371;DHT22;4725;48.384;8.984;2023-03-14T09:24:31;9.70;99.90
9371;DHT22;4725;48.384;8.984;2023-03-14T09:26:58;9.70;99.90
9371;DHT22;4725;48.384;8.984;2023-03-14T09:31:52;9.50;99.90
9371;DHT22;4725;48.384;8.984;2023-03-14T09:34:19;9.30;99.90
9371;DHT22;4725;48.384;8.984;2023-03-14T09:36:46;9.30;99.90
9371;DHT22;4725;48.384;8.984;2023-03-14T09:39:14;9.30;99.90
9371;DHT22;4725;48.384;8.984;2023-03-14T09:41:44;9.20;99.90
9371;DHT22;4725;48.384;8.984;2023-03-14T09:44:14;9.30;99.90
9371;DHT22;4725;48.384;8.984;2023-03-14T09:46:44;9.30;99.90
9371;DHT22;4725;48.384;8.984;2023-03-14T09:49:20;9.30;99.90
9371;DHT22;4725;48.384;8.984;2023-03-14T09:51:51;9.30;99.90
9371;DHT22;4725;48.384;8.984;2023-03-14T09:54:34;9.30;99.90
9371;DHT22;4725;48.384;8.984;2023-03-14T09:57:02;9.40;99.90
9371;DHT22;4725;48.384;8.984;2023-03-14T09:59:30;9.60;99.90
9371;DHT22;4725;48.384;8.984;2023-03-14T10:02:00;9.70;99.90
9371;DHT22;4725;48.384;8.984;2023-03-14T10:04:28;9.90;99.90
9371;DHT22;4725;48.384;8.984;2023-03-14T10:06:58;10.00;99.90
9371;DHT22;4725;48.384;8.984;2023-03-14T10:09:26;10.20;99.90
9371;DHT22;4725;48.384;8.984;2023-03-14T10:11:56;10.20;99.90
9371;DHT22;4725;48.384;8.984;2023-03-14T10:14:30;10.20;99.90
9371;DHT22;4725;48.384;8.984;2023-03-14T10:17:06;10.20;99.90
9371;DHT22;4725;48.384;8.984;2023-03-14T10:19:36;10.10;99.90
9371;DHT22;4725;48.384;8.984;2023-03-14T10:22:04;10.00;99.90
9371;DHT22;4725;48.384;8.984;2023-03-14T10:24:34;10.10;99.90
9371;DHT22;4725;48.384;8.984;2023-03-14T10:27:02;10.10;99.90
9371;DHT22;4725;48.384;8.984;2023-03-14T10:29:30;10.30;99.90
9371;DHT22;4725;48.384;8.984;2023-03-14T10:31:59;10.40;99.90
9371;DHT22;4725;48.384;8.984;2023-03-14T10:34:29;10.40;99.90
9371;DHT22;4725;48.384;8.984;2023-03-14T10:36:58;10.40;99.90
9371;DHT22;4725;48.384;8.984;2023-03-14T10:39:29;10.50;99.90
9371;DHT22;4725;48.384;8.984;2023-03-14T10:42:05;10.70;99.90
9371;DHT22;4725;48.384;8.984;2023-03-14T10:44:34;10.70;99.90
9371;DHT22;4725;48.384;8.984;2023-03-14T10:47:03;10.40;99.90
9371;DHT22;4725;48.384;8.984;2023-03-14T10:49:31;10.40;99.90
9371;DHT22;4725;48.384;8.984;2023-03-14T10:52:02;10.30;99.90
9371;DHT22;4725;48.384;8.984;2023-03-14T10:54:38;10.10;99.90
9371;DHT22;4725;48.384;8.984;2023-03-14T10:57:07;9.90;99.90
9371;DHT22;4725;48.384;8.984;2023-03-14T10:59:36;9.60;99.90
9371;DHT22;4725;48.384;8.984;2023-03-14T11:02:10;9.50;99.90
9371;DHT22;4725;48.384;8.984;2023-03-14T11:04:55;9.40;99.90
9371;DHT22;4725;48.384;8.984;2023-03-14T11:07:30;9.30;99.90
9371;DHT22;4725;48.384;8.984;2023-03-14T11:10:04;9.10;99.90
9371;DHT22;4725;48.384;8.984;2023-03-14T11:12:43;9.10;99.90
9371;DHT22;4725;48.384;8.984;2023-03-14T11:15:18;9.00;99.90
9371;DHT22;4725;48.384;8.984;2023-03-14T11:17:53;9.00;99.90
9371;DHT22;4725;48.384;8.984;2023-03-14T11:20:35;8.90;99.90
9371;DHT22;4725;48.384;8.984;2023-03-14T11:23:08;8.90;99.90
9371;DHT22;4725;48.384;8.984;2023-03-14T11:25:43;8.90;99.90
9371;DHT22;4725;48.384;8.984;2023-03-14T11:28:18;8.90;99.90
9371;DHT22;4725;48.384;8.984;2023-03-14T11:30:51;8.80;99.90
9371;DHT22;4725;48.384;8.984;2023-03-14T11:33:23;8.70;99.90
9371;DHT22;4725;48.384;8.984;2023-03-14T11:35:56;8.70;99.90
9371;DHT22;4725;48.384;8.984;2023-03-14T11:38:29;8.70;99.90
9371;DHT22;4725;48.384;8.984;2023-03-14T11:40:58;8.70;99.90
9371;DHT22;4725;48.384;8.984;2023-03-14T11:43:29;8.60;99.90
9371;DHT22;4725;48.384;8.984;2023-03-14T11:46:01;8.70;99.90
9371;DHT22;4725;48.384;8.984;2023-03-14T11:48:36;8.60;99.90
9371;DHT22;4725;48.384;8.984;2023-03-14T11:51:09;8.60;99.90
9371;DHT22;4725;48.384;8.984;2023-03-14T11:53:47;8.50;99.90
9371;DHT22;4725;48.384;8.984;2023-03-14T11:56:20;8.50;99.90
9371;DHT22;4725;48.384;8.984;2023-03-14T11:58:55;8.40;99.90
9371;DHT22;4725;48.384;8.984;2023-03-14T12:01:30;8.40;99.90
9371;DHT22;4725;48.384;8.984;2023-03-14T12:04:05;8.40;99.90
9371;DHT22;4725;48.384;8.984;2023-03-14T12:06:40;8.30;99.90
9371;DHT22;4725;48.384;8.984;2023-03-14T12:09:13;8.20;99.90
9371;DHT22;4725;48.384;8.984;2023-03-14T12:11:45;8.20;99.90
9371;DHT22;4725;48.384;8.984;2023-03-14T12:14:24;8.20;99.90
9371;DHT22;4725;48.384;8.984;2023-03-14T12:16:57;8.20;99.90
9371;DHT22;4725;48.384;8.984;2023-03-14T12:19:33;8.00;99.90
9371;DHT22;4725;48.384;8.984;2023-03-14T12:24:53;7.70;99.90
9371;DHT22;4725;48.384;8.984;2023-03-14T12:27:41;7.10;99.90
9371;DHT22;4725;48.384;8.984;2023-03-14T12:30:27;6.40;99.90
9371;DHT22;4725;48.384;8.984;2023-03-14T12:33:20;6.40;99.90
9371;DHT22;4725;48.384;8.984;2023-03-14T12:35:49;6.40;99.90
9371;DHT22;4725;48.384;8.984;2023-03-14T12:38:23;6.50;99.90
9371;DHT22;4725;48.384;8.984;2023-03-14T12:40:57;6.60;99.90
9371;DHT22;4725;48.384;8.984;2023-03-14T12:43:28;6.70;99.90
9371;DHT22;4725;48.384;8.984;2023-03-14T12:46:15;6.70;99.90
9371;DHT22;4725;48.384;8.984;2023-03-14T12:48:46;6.70;99.90
9371;DHT22;4725;48.384;8.984;2023-03-14T12:51:15;6.70;99.90
9371;DHT22;4725;48.384;8.984;2023-03-14T12:54:15;7.70;99.90
9371;DHT22;4725;48.384;8.984;2023-03-14T12:56:57;8.30;99.90
9371;DHT22;4725;48.384;8.984;2023-03-14T12:59:30;9.10;99.90
9371;DHT22;4725;48.384;8.984;2023-03-14T13:02:12;9.10;99.90
9371;DHT22;4725;48.384;8.984;2023-03-14T13:04:44;9.00;99.90
9371;DHT22;4725;48.384;8.984;2023-03-14T13:07:13;8.40;99.90
9371;DHT22;4725;48.384;8.984;2023-03-14T13:09:55;7.50;99.90
9371;DHT22;4725;48.384;8.984;2023-03-14T13:12:37;7.20;99.90
9371;DHT22;4725;48.384;8.984;2023-03-14T13:15:15;6.90;99.90
9371;DHT22;4725;48.384;8.984;2023-03-14T13:17:46;6.80;99.90
9371;DHT22;4725;48.384;8.984;2023-03-14T13:20:19;6.80;99.90
9371;DHT22;4725;48.384;8.984;2023-03-14T13:22:48;7.00;99.90
9371;DHT22;4725;48.384;8.984;2023-03-14T13:25:16;7.00;99.90
9371;DHT22;4725;48.384;8.984;2023-03-14T13:27:47;7.00;99.90
9371;DHT22;4725;48.384;8.984;2023-03-14T13:30:17;6.80;99.90
9371;DHT22;4725;48.384;8.984;2023-03-14T13:32:47;6.70;99.90
9371;DHT22;4725;48.384;8.984;2023-03-14T13:35:19;6.70;99.90
9371;DHT22;4725;48.384;8.984;2023-03-14T13:37:46;6.70;99.90
9371;DHT22;4725;48.384;8.984;2023-03-14T13:40:23;6.70;99.90
9371;DHT22;4725;48.384;8.984;2023-03-14T13:43:01;6.70;99.90
9371;DHT22;4725;48.384;8.984;2023-03-14T13:45:29;6.60;99.90
9371;DHT22;4725;48.384;8.984;2023-03-14T13:47:57;6.50;99.90
9371;DHT22;4725;48.384;8.984;2023-03-14T13:52:56;6.20;99.90
9371;DHT22;4725;48.384;8.984;2023-03-14T13:55:23;6.20;99.90
9371;DHT22;4725;48.384;8.984;2023-03-14T13:57:52;6.10;99.90
9371;DHT22;4725;48.384;8.984;2023-03-14T14:00:22;6.10;99.90
9371;DHT22;4725;48.384;8.984;2023-03-14T14:02:53;6.10;99.90
9371;DHT22;4725;48.384;8.984;2023-03-14T14:05:22;6.10;99.90
9371;DHT22;4725;48.384;8.984;2023-03-14T14:07:50;6.20;99.90
9371;DHT22;4725;48.384;8.984;2023-03-14T14:10:18;6.10;99.90
9371;DHT22;4725;48.384;8.984;2023-03-14T14:12:48;6.00;99.90
9371;DHT22;4725;48.384;8.984;2023-03-14T14:15:19;6.00;99.90
9371;DHT22;4725;48.384;8.984;2023-03-14T14:17:49;6.00;99.90
9371;DHT22;4725;48.384;8.984;2023-03-14T14:20:23;6.00;99.90
9371;DHT22;4725;48.384;8.984;2023-03-14T14:22:52;6.00;99.90
9371;DHT22;4725;48.384;8.984;2023-03-14T14:25:19;5.90;99.90
9371;DHT22;4725;48.384;8.984;2023-03-14T14:27:48;5.90;99.90
9371;DHT22;4725;48.384;8.984;2023-03-14T14:30:31;5.70;99.90
9371;DHT22;4725;48.384;8.984;2023-03-14T14:33:16;5.80;99.90
9371;DHT22;4725;48.384;8.984;2023-03-14T14:35:51;5.70;99.90
9371;DHT22;4725;48.384;8.984;2023-03-14T14:38:18;5.70;99.90
9371;DHT22;4725;48.384;8.984;2023-03-14T14:40:49;5.60;99.90
9371;DHT22;4725;48.384;8.984;2023-03-14T14:43:21;5.60;99.90
9371;DHT22;4725;48.384;8.984;2023-03-14T14:45:50;5.60;99.90
9371;DHT22;4725;48.384;8.984;2023-03-14T14:48:20;5.60;99.90
9371;DHT22;4725;48.384;8.984;2023-03-14T14:50:56;5.70;99.90
9371;DHT22;4725;48.384;8.984;2023-03-14T14:53:28;5.80;99.90
9371;DHT22;4725;48.384;8.984;2023-03-14T14:55:57;6.10;99.90
9371;DHT22;4725;48.384;8.984;2023-03-14T14:58:26;6.80;99.90
9371;DHT22;4725;48.384;8.984;2023-03-14T15:00:56;8.00;99.90
9371;DHT22;4725;48.384;8.984;2023-03-14T15:03:26;8.90;99.90
9371;DHT22;4725;48.384;8.984;2023-03-14T15:05:55;9.00;99.90
9371;DHT22;4725;48.384;8.984;2023-03-14T15:08:24;8.40;99.90
9371;DHT22;4725;48.384;8.984;2023-03-14T15:10:52;7.90;99.90
9371;DHT22;4725;48.384;8.984;2023-03-14T15:13:19;7.80;99.90
9371;DHT22;4725;48.384;8.984;2023-03-14T15:15:46;7.50;99.90
9371;DHT22;4725;48.384;8.984;2023-03-14T15:18:15;7.50;99.90
9371;DHT22;4725;48.384;8.984;2023-03-14T15:20:42;7.30;99.90
9371;DHT22;4725;48.384;8.984;2023-03-14T15:23:12;7.30;99.90
9371;DHT22;4725;48.384;8.984;2023-03-14T15:25:39;7.10;99.90
9371;DHT22;4725;48.384;8.984;2023-03-14T15:28:18;6.90;99.90
9371;DHT22;4725;48.384;8.984;2023-03-14T15:30:47;6.80;99.90
9371;DHT22;4725;48.384;8.984;2023-03-14T15:33:14;6.80;99.90
9371;DHT22;4725;48.384;8.984;2023-03-14T15:35:41;6.90;99.90
9371;DHT22;4725;48.384;8.984;2023-03-14T15:38:13;6.90;99.90
9371;DHT22;4725;48.384;8.984;2023-03-14T15:40:40;6.90;99.90
9371;DHT22;4725;48.384;8.984;2023-03-14T15:43:07;6.80;99.90
9371;DHT22;4725;48.384;8.984;2023-03-14T15:45:35;6.80;99.90
9371;DHT22;4725;48.384;8.984;2023-03-14T15:48:02;7.10;99.90
9371;DHT22;4725;48.384;8.984;2023-03-14T15:50:29;7.10;99.90
9371;DHT22;4725;48.384;8.984;2023-03-14T15:52:57;7.10;99.90
9371;DHT22;4725;48.384;8.984;2023-03-14T15:55:25;7.00;99.90
9371;DHT22;4725;48.384;8.984;2023-03-14T15:57:52;6.90;99.90
9371;DHT22;4725;48.384;8.984;2023-03-14T16:00:20;6.80;99.90
9371;DHT22;4725;48.384;8.984;2023-03-14T16:02:48;6.80;99.90
9371;DHT22;4725;48.384;8.984;2023-03-14T16:05:16;6.80;99.90
9371;DHT22;4725;48.384;8.984;2023-03-14T16:07:44;6.70;99.90
9371;DHT22;4725;48.384;8.984;2023-03-14T16:10:12;6.60;99.90
9371;DHT22;4725;48.384;8.984;2023-03-14T16:12:41;6.30;99.90
9371;DHT22;4725;48.384;8.984;2023-03-14T16:15:09;6.60;99.90
9371;DHT22;4725;48.384;8.984;2023-03-14T16:17:36;6.50;99.90
9371;DHT22;4725;48.384;8.984;2023-03-14T16:20:06;6.60;99.90
9371;DHT22;4725;48.384;8.984;2023-03-14T16:22:34;6.70;99.90
9371;DHT22;4725;48.384;8.984;2023-03-14T16:25:02;6.60;99.90
9371;DHT22;4725;48.384;8.984;2023-03-14T16:27:29;6.60;99.90
9371;DHT22;4725;48.384;8.984;2023-03-14T16:29:58;6.60;99.90
9371;DHT22;4725;48.384;8.984;2023-03-14T16:32:26;6.60;99.90
9371;DHT22;4725;48.384;8.984;2023-03-14T16:34:53;6.60;99.90
9371;DHT22;4725;48.384;8.984;2023-03-14T16:37:22;6.50;99.90
9371;DHT22;4725;48.384;8.984;2023-03-14T16:39:49;6.50;99.90
9371;DHT22;4725;48.384;8.984;2023-03-14T16:42:16;6.50;99.90
9371;DHT22;4725;48.384;8.984;2023-03-14T16:44:43;6.50;99.90